sensor_id;sensor_type;location;lat;lon;timestamp;pressure;altitude;pressure_sealevel;temperature
64394;BMP280;50712;49.506;10.400;2022-08-03T00:00:03;98177.16;;;25.59
64394;BMP280;50712;49.506;10.400;2022-08-03T00:00:42;98174.38;;;25.59
64394;BMP280;50712;49.506;10.400;2022-08-03T00:01:15;98179.19;;;25.58
64394;BMP280;50712;49.506;10.400;2022-08-03T00:01:46;98174.97;;;25.57
64394;BMP280;50712;49.506;10.400;2022-08-03T00:02:16;98179.03;;;25.56
64394;BMP280;50712;49.506;10.400;2022-08-03T00:02:47;98179.03;;;25.56
64394;BMP280;50712;49.506;10.400;2022-08-03T00:03:17;98181.06;;;25.56
64394;BMP280;50712;49.506;10.400;2022-08-03T00:03:47;98178.28;;;25.56
64394;BMP280;50712;49.506;10.400;2022-08-03T00:04:18;98175.31;;;25.54
64394;BMP280;50712;49.506;10.400;2022-08-03T00:04:48;98168.38;;;25.55
64394;BMP280;50712;49.506;10.400;2022-08-03T00:05:19;98178.09;;;25.54
64394;BMP280;50712;49.506;10.400;2022-08-03T00:05:49;98177.34;;;25.53
64394;BMP280;50712;49.506;10.400;2022-08-03T00:06:20;98171.00;;;25.53
64394;BMP280;50712;49.506;10.400;2022-08-03T00:06:50;98178.63;;;25.52
64394;BMP280;50712;49.506;10.400;2022-08-03T00:07:21;98176.41;;;25.51
64394;BMP280;50712;49.506;10.400;2022-08-03T00:07:51;98167.28;;;25.50
64394;BMP280;50712;49.506;10.400;2022-08-03T00:08:21;98177.69;;;25.50
64394;BMP280;50712;49.506;10.400;2022-08-03T00:08:52;98176.16;;;25.49
64394;BMP280;50712;49.506;10.400;2022-08-03T00:09:22;98175.41;;;25.48
64394;BMP280;50712;49.506;10.400;2022-08-03T00:09:53;98175.41;;;25.48
64394;BMP280;50712;49.506;10.400;2022-08-03T00:10:23;98176.75;;;25.47
64394;BMP280;50712;49.506;10.400;2022-08-03T00:10:53;98176.00;;;25.47
64394;BMP280;50712;49.506;10.400;2022-08-03T00:11:24;98178.78;;;25.47
64394;BMP280;50712;49.506;10.400;2022-08-03T00:11:55;98172.44;;;25.46
64394;BMP280;50712;49.506;10.400;2022-08-03T00:12:25;98175.06;;;25.44
64394;BMP280;50712;49.506;10.400;2022-08-03T00:12:56;98179.88;;;25.44
64394;BMP280;50712;49.506;10.400;2022-08-03T00:13:26;98175.59;;;25.43
64394;BMP280;50712;49.506;10.400;2022-08-03T00:13:56;98174.06;;;25.42
64394;BMP280;50712;49.506;10.400;2022-08-03T00:14:27;98178.19;;;25.41
64394;BMP280;50712;49.506;10.400;2022-08-03T00:14:57;98179.47;;;25.40
64394;BMP280;50712;49.506;10.400;2022-08-03T00:15:28;98177.44;;;25.40
64394;BMP280;50712;49.506;10.400;2022-08-03T00:15:58;98177.22;;;25.38
64394;BMP280;50712;49.506;10.400;2022-08-03T00:16:28;98179.28;;;25.38
64394;BMP280;50712;49.506;10.400;2022-08-03T00:16:59;98186.16;;;25.37
64394;BMP280;50712;49.506;10.400;2022-08-03T00:17:29;98179.06;;;25.36
64394;BMP280;50712;49.506;10.400;2022-08-03T00:18:00;98175.50;;;25.35
64394;BMP280;50712;49.506;10.400;2022-08-03T00:18:30;98178.13;;;25.33
64394;BMP280;50712;49.506;10.400;2022-08-03T00:19:00;98178.88;;;25.34
64394;BMP280;50712;49.506;10.400;2022-08-03T00:19:31;98175.34;;;25.33
64394;BMP280;50712;49.506;10.400;2022-08-03T00:20:02;98178.66;;;25.32
64394;BMP280;50712;49.506;10.400;2022-08-03T00:20:33;98181.47;;;25.32
64394;BMP280;50712;49.506;10.400;2022-08-03T00:21:03;98182.78;;;25.31
64394;BMP280;50712;49.506;10.400;2022-08-03T00:21:34;98185.56;;;25.31
64394;BMP280;50712;49.506;10.400;2022-08-03T00:22:05;98178.47;;;25.30
64394;BMP280;50712;49.506;10.400;2022-08-03T00:22:35;98184.03;;;25.30
64394;BMP280;50712;49.506;10.400;2022-08-03T00:23:05;98184.59;;;25.28
64394;BMP280;50712;49.506;10.400;2022-08-03T00:23:36;98187.38;;;25.28
64394;BMP280;50712;49.506;10.400;2022-08-03T00:24:06;98181.59;;;25.26
64394;BMP280;50712;49.506;10.400;2022-08-03T00:24:37;98180.13;;;25.25
64394;BMP280;50712;49.506;10.400;2022-08-03T00:25:07;98183.63;;;25.26
64394;BMP280;50712;49.506;10.400;2022-08-03T00:25:37;98177.31;;;25.25
64394;BMP280;50712;49.506;10.400;2022-08-03T00:26:08;98186.25;;;25.24
64394;BMP280;50712;49.506;10.400;2022-08-03T00:26:38;98180.66;;;25.24
64394;BMP280;50712;49.506;10.400;2022-08-03T00:27:09;98185.47;;;25.23
64394;BMP280;50712;49.506;10.400;2022-08-03T00:27:42;98181.22;;;25.22
64394;BMP280;50712;49.506;10.400;2022-08-03T00:28:12;98181.00;;;25.20
64394;BMP280;50712;49.506;10.400;2022-08-03T00:28:42;98182.31;;;25.19
64394;BMP280;50712;49.506;10.400;2022-08-03T00:29:13;98181.56;;;25.19
64394;BMP280;50712;49.506;10.400;2022-08-03T00:29:43;98182.84;;;25.18
64394;BMP280;50712;49.506;10.400;2022-08-03T00:30:14;98186.94;;;25.17
64394;BMP280;50712;49.506;10.400;2022-08-03T00:30:44;98183.38;;;25.16
64394;BMP280;50712;49.506;10.400;2022-08-03T00:31:15;98179.09;;;25.15
64394;BMP280;50712;49.506;10.400;2022-08-03T00:31:45;98182.44;;;25.14
64394;BMP280;50712;49.506;10.400;2022-08-03T00:32:16;98178.16;;;25.13
64394;BMP280;50712;49.506;10.400;2022-08-03T00:32:46;98181.47;;;25.11
64394;BMP280;50712;49.506;10.400;2022-08-03T00:33:16;98185.56;;;25.10
64394;BMP280;50712;49.506;10.400;2022-08-03T00:33:47;98184.09;;;25.09
64394;BMP280;50712;49.506;10.400;2022-08-03T00:34:17;98180.53;;;25.09
64394;BMP280;50712;49.506;10.400;2022-08-03T00:34:48;98178.28;;;25.07
64394;BMP280;50712;49.506;10.400;2022-08-03T00:35:18;98178.28;;;25.07
64394;BMP280;50712;49.506;10.400;2022-08-03T00:35:49;98187.22;;;25.06
64394;BMP280;50712;49.506;10.400;2022-08-03T00:36:21;98182.41;;;25.06
64394;BMP280;50712;49.506;10.400;2022-08-03T00:36:51;98180.88;;;25.05
64394;BMP280;50712;49.506;10.400;2022-08-03T00:37:21;98176.06;;;25.06
64394;BMP280;50712;49.506;10.400;2022-08-03T00:37:52;98174.53;;;25.05
64394;BMP280;50712;49.506;10.400;2022-08-03T00:38:22;98180.88;;;25.05
64394;BMP280;50712;49.506;10.400;2022-08-03T00:38:53;98180.13;;;25.05
64394;BMP280;50712;49.506;10.400;2022-08-03T00:39:23;98178.09;;;25.05
64394;BMP280;50712;49.506;10.400;2022-08-03T00:39:54;98173.06;;;25.04
64394;BMP280;50712;49.506;10.400;2022-08-03T00:40:24;98180.69;;;25.03
64394;BMP280;50712;49.506;10.400;2022-08-03T00:40:55;98183.50;;;25.03
64394;BMP280;50712;49.506;10.400;2022-08-03T00:41:26;98178.63;;;25.04
64394;BMP280;50712;49.506;10.400;2022-08-03T00:41:56;98174.38;;;25.03
64394;BMP280;50712;49.506;10.400;2022-08-03T00:42:26;98182.72;;;25.03
64394;BMP280;50712;49.506;10.400;2022-08-03T00:42:58;98184.75;;;25.02
64394;BMP280;50712;49.506;10.400;2022-08-03T00:43:29;98181.22;;;25.02
64394;BMP280;50712;49.506;10.400;2022-08-03T00:44:00;98183.25;;;25.01
64394;BMP280;50712;49.506;10.400;2022-08-03T00:44:30;98180.47;;;25.01
64394;BMP280;50712;49.506;10.400;2022-08-03T00:45:01;98178.25;;;25.00
64394;BMP280;50712;49.506;10.400;2022-08-03T00:45:32;98183.81;;;25.00
64394;BMP280;50712;49.506;10.400;2022-08-03T00:46:08;98185.09;;;24.99
64394;BMP280;50712;49.506;10.400;2022-08-03T00:46:38;98187.13;;;24.98
64394;BMP280;50712;49.506;10.400;2022-08-03T00:47:09;98184.34;;;24.98
64394;BMP280;50712;49.506;10.400;2022-08-03T00:47:40;98181.56;;;24.98
64394;BMP280;50712;49.506;10.400;2022-08-03T00:48:10;98176.56;;;24.97
64394;BMP280;50712;49.506;10.400;2022-08-03T00:48:42;98182.13;;;24.97
64394;BMP280;50712;49.506;10.400;2022-08-03T00:49:12;98174.28;;;24.95
64394;BMP280;50712;49.506;10.400;2022-08-03T00:49:43;98179.09;;;24.95
64394;BMP280;50712;49.506;10.400;2022-08-03T00:50:13;98183.22;;;24.94
64394;BMP280;50712;49.506;10.400;2022-08-03T00:50:44;98176.88;;;24.93
64394;BMP280;50712;49.506;10.400;2022-08-03T00:51:17;98179.69;;;24.93
64394;BMP280;50712;49.506;10.400;2022-08-03T00:51:48;98178.75;;;24.91
64394;BMP280;50712;49.506;10.400;2022-08-03T00:52:19;98180.00;;;24.90
64394;BMP280;50712;49.506;10.400;2022-08-03T00:52:52;98176.47;;;24.89
64394;BMP280;50712;49.506;10.400;2022-08-03T00:53:24;98174.00;;;24.86
64394;BMP280;50712;49.506;10.400;2022-08-03T00:53:56;98180.34;;;24.86
64394;BMP280;50712;49.506;10.400;2022-08-03T00:54:26;98176.81;;;24.86
64394;BMP280;50712;49.506;10.400;2022-08-03T00:54:57;98180.13;;;24.84
64394;BMP280;50712;49.506;10.400;2022-08-03T00:55:27;98179.41;;;24.84
64394;BMP280;50712;49.506;10.400;2022-08-03T00:55:57;98181.44;;;24.83
64394;BMP280;50712;49.506;10.400;2022-08-03T00:56:28;98175.66;;;24.81
64394;BMP280;50712;49.506;10.400;2022-08-03T00:56:58;98182.53;;;24.80
64394;BMP280;50712;49.506;10.400;2022-08-03T00:57:30;98176.19;;;24.80
64394;BMP280;50712;49.506;10.400;2022-08-03T00:58:02;98174.69;;;24.79
64394;BMP280;50712;49.506;10.400;2022-08-03T00:58:36;98174.50;;;24.77
64394;BMP280;50712;49.506;10.400;2022-08-03T00:59:06;98181.34;;;24.76
64394;BMP280;50712;49.506;10.400;2022-08-03T00:59:38;98175.03;;;24.75
64394;BMP280;50712;49.506;10.400;2022-08-03T01:00:09;98185.44;;;24.75
64394;BMP280;50712;49.506;10.400;2022-08-03T01:00:40;98178.38;;;24.74
64394;BMP280;50712;49.506;10.400;2022-08-03T01:01:11;98176.13;;;24.72
64394;BMP280;50712;49.506;10.400;2022-08-03T01:01:42;98185.03;;;24.71
64394;BMP280;50712;49.506;10.400;2022-08-03T01:02:13;98187.81;;;24.71
64394;BMP280;50712;49.506;10.400;2022-08-03T01:02:43;98180.00;;;24.69
64394;BMP280;50712;49.506;10.400;2022-08-03T01:03:14;98184.84;;;24.69
64394;BMP280;50712;49.506;10.400;2022-08-03T01:03:44;98184.09;;;24.68
64394;BMP280;50712;49.506;10.400;2022-08-03T01:04:15;98188.16;;;24.67
64394;BMP280;50712;49.506;10.400;2022-08-03T01:04:45;98183.88;;;24.66
64394;BMP280;50712;49.506;10.400;2022-08-03T01:05:16;98182.38;;;24.65
64394;BMP280;50712;49.506;10.400;2022-08-03T01:06:42;98174.34;;;24.62
64394;BMP280;50712;49.506;10.400;2022-08-03T01:07:26;98181.97;;;24.61
64394;BMP280;50712;49.506;10.400;2022-08-03T01:08:15;98178.22;;;24.59
64394;BMP280;50712;49.506;10.400;2022-08-03T01:12:21;98186.31;;;24.49
64394;BMP280;50712;49.506;10.400;2022-08-03T01:13:16;98183.28;;;24.47
64394;BMP280;50712;49.506;10.400;2022-08-03T01:14:01;98182.34;;;24.45
64394;BMP280;50712;49.506;10.400;2022-08-03T01:15:30;98178.63;;;24.42
64394;BMP280;50712;49.506;10.400;2022-08-03T01:16:09;98177.31;;;24.43
64394;BMP280;50712;49.506;10.400;2022-08-03T01:17:00;98175.81;;;24.42
64394;BMP280;50712;49.506;10.400;2022-08-03T01:18:51;98181.19;;;24.40
64394;BMP280;50712;49.506;10.400;2022-08-03T01:20:23;98175.41;;;24.38
64394;BMP280;50712;49.506;10.400;2022-08-03T01:21:01;98175.19;;;24.36
64394;BMP280;50712;49.506;10.400;2022-08-03T01:22:22;98180.03;;;24.36
64394;BMP280;50712;49.506;10.400;2022-08-03T01:26:08;98176.38;;;24.27
64394;BMP280;50712;49.506;10.400;2022-08-03T01:27:32;98177.47;;;24.24
64394;BMP280;50712;49.506;10.400;2022-08-03T01:30:04;98176.50;;;24.22
64394;BMP280;50712;49.506;10.400;2022-08-03T01:30:36;98174.28;;;24.20
64394;BMP280;50712;49.506;10.400;2022-08-03T01:31:10;98176.31;;;24.20
64394;BMP280;50712;49.506;10.400;2022-08-03T01:31:43;98170.72;;;24.20
64394;BMP280;50712;49.506;10.400;2022-08-03T01:32:21;98174.78;;;24.19
64394;BMP280;50712;49.506;10.400;2022-08-03T01:33:18;98173.31;;;24.18
64394;BMP280;50712;49.506;10.400;2022-08-03T01:33:56;98177.38;;;24.17
64394;BMP280;50712;49.506;10.400;2022-08-03T01:34:33;98178.66;;;24.16
64394;BMP280;50712;49.506;10.400;2022-08-03T01:35:11;98176.44;;;24.14
64394;BMP280;50712;49.506;10.400;2022-08-03T01:35:49;98174.19;;;24.13
64394;BMP280;50712;49.506;10.400;2022-08-03T01:36:31;98175.44;;;24.12
64394;BMP280;50712;49.506;10.400;2022-08-03T01:37:04;98171.97;;;24.11
64394;BMP280;50712;49.506;10.400;2022-08-03T01:37:52;98171.72;;;24.09
64394;BMP280;50712;49.506;10.400;2022-08-03T01:38:28;98170.97;;;24.09
64394;BMP280;50712;49.506;10.400;2022-08-03T01:39:03;98175.75;;;24.08
64394;BMP280;50712;49.506;10.400;2022-08-03T01:39:38;98173.56;;;24.07
64394;BMP280;50712;49.506;10.400;2022-08-03T01:40:10;98174.81;;;24.06
64394;BMP280;50712;49.506;10.400;2022-08-03T01:40:43;98174.06;;;24.05
64394;BMP280;50712;49.506;10.400;2022-08-03T01:41:20;98175.38;;;24.04
64394;BMP280;50712;49.506;10.400;2022-08-03T01:42:02;98166.78;;;24.02
64394;BMP280;50712;49.506;10.400;2022-08-03T01:42:35;98177.94;;;24.02
64394;BMP280;50712;49.506;10.400;2022-08-03T01:43:08;98168.09;;;24.01
64394;BMP280;50712;49.506;10.400;2022-08-03T01:43:41;98174.97;;;24.00
64394;BMP280;50712;49.506;10.400;2022-08-03T01:44:17;98172.19;;;24.00
64394;BMP280;50712;49.506;10.400;2022-08-03T01:44:51;98162.84;;;23.98
64394;BMP280;50712;49.506;10.400;2022-08-03T01:45:24;98174.75;;;23.98
64394;BMP280;50712;49.506;10.400;2022-08-03T01:45:56;98163.59;;;23.98
64394;BMP280;50712;49.506;10.400;2022-08-03T01:46:28;98164.88;;;23.97
64394;BMP280;50712;49.506;10.400;2022-08-03T01:47:00;98169.72;;;23.97
64394;BMP280;50712;49.506;10.400;2022-08-03T01:47:32;98170.97;;;23.96
64394;BMP280;50712;49.506;10.400;2022-08-03T01:48:03;98163.38;;;23.96
64394;BMP280;50712;49.506;10.400;2022-08-03T01:48:37;98160.38;;;23.94
64394;BMP280;50712;49.506;10.400;2022-08-03T01:49:11;98170.75;;;23.94
64394;BMP280;50712;49.506;10.400;2022-08-03T01:49:42;98167.97;;;23.94
64394;BMP280;50712;49.506;10.400;2022-08-03T01:50:14;98162.97;;;23.92
64394;BMP280;50712;49.506;10.400;2022-08-03T01:50:50;98166.28;;;23.91
64394;BMP280;50712;49.506;10.400;2022-08-03T01:51:23;98162.75;;;23.90
64394;BMP280;50712;49.506;10.400;2022-08-03T01:51:54;98164.06;;;23.89
64394;BMP280;50712;49.506;10.400;2022-08-03T01:52:25;98167.56;;;23.90
64394;BMP280;50712;49.506;10.400;2022-08-03T01:52:57;98154.19;;;23.88
64394;BMP280;50712;49.506;10.400;2022-08-03T01:53:29;98162.53;;;23.88
64394;BMP280;50712;49.506;10.400;2022-08-03T01:54:02;98161.03;;;23.87
64394;BMP280;50712;49.506;10.400;2022-08-03T01:54:39;98163.81;;;23.87
64394;BMP280;50712;49.506;10.400;2022-08-03T01:55:12;98165.84;;;23.87
64394;BMP280;50712;49.506;10.400;2022-08-03T01:55:47;98163.06;;;23.87
64394;BMP280;50712;49.506;10.400;2022-08-03T01:56:21;98167.16;;;23.86
64394;BMP280;50712;49.506;10.400;2022-08-03T01:56:55;98162.31;;;23.86
64394;BMP280;50712;49.506;10.400;2022-08-03T01:57:28;98166.41;;;23.85
64394;BMP280;50712;49.506;10.400;2022-08-03T01:58:00;98159.34;;;23.84
64394;BMP280;50712;49.506;10.400;2022-08-03T01:58:33;98166.41;;;23.85
64394;BMP280;50712;49.506;10.400;2022-08-03T01:59:04;98164.91;;;23.84
64394;BMP280;50712;49.506;10.400;2022-08-03T01:59:37;98162.88;;;23.85
64394;BMP280;50712;49.506;10.400;2022-08-03T02:00:11;98168.44;;;23.85
64394;BMP280;50712;49.506;10.400;2022-08-03T02:00:47;98164.91;;;23.84
64394;BMP280;50712;49.506;10.400;2022-08-03T02:01:19;98164.91;;;23.84
64394;BMP280;50712;49.506;10.400;2022-08-03T02:01:51;98164.91;;;23.84
64394;BMP280;50712;49.506;10.400;2022-08-03T02:02:23;98158.56;;;23.84
64394;BMP280;50712;49.506;10.400;2022-08-03T02:02:55;98163.38;;;23.83
64394;BMP280;50712;49.506;10.400;2022-08-03T02:03:27;98160.59;;;23.83
64394;BMP280;50712;49.506;10.400;2022-08-03T02:03:58;98150.78;;;23.82
64394;BMP280;50712;49.506;10.400;2022-08-03T02:04:29;98158.38;;;23.82
64394;BMP280;50712;49.506;10.400;2022-08-03T02:05:00;98161.91;;;23.82
64394;BMP280;50712;49.506;10.400;2022-08-03T02:05:33;98153.56;;;23.82
64394;BMP280;50712;49.506;10.400;2022-08-03T02:06:05;98157.63;;;23.81
64394;BMP280;50712;49.506;10.400;2022-08-03T02:06:38;98164.47;;;23.80
64394;BMP280;50712;49.506;10.400;2022-08-03T02:07:09;98156.69;;;23.79
64394;BMP280;50712;49.506;10.400;2022-08-03T02:07:41;98151.88;;;23.79
64394;BMP280;50712;49.506;10.400;2022-08-03T02:08:14;98155.16;;;23.78
64394;BMP280;50712;49.506;10.400;2022-08-03T02:08:47;98156.44;;;23.77
64394;BMP280;50712;49.506;10.400;2022-08-03T02:09:19;98148.66;;;23.75
64394;BMP280;50712;49.506;10.400;2022-08-03T02:09:51;98152.69;;;23.74
64394;BMP280;50712;49.506;10.400;2022-08-03T02:10:24;98148.44;;;23.73
64394;BMP280;50712;49.506;10.400;2022-08-03T02:10:56;98146.94;;;23.72
64394;BMP280;50712;49.506;10.400;2022-08-03T02:11:29;98148.22;;;23.71
64394;BMP280;50712;49.506;10.400;2022-08-03T02:12:01;98149.50;;;23.70
64394;BMP280;50712;49.506;10.400;2022-08-03T02:12:33;98150.78;;;23.69
64394;BMP280;50712;49.506;10.400;2022-08-03T02:13:06;98148.53;;;23.68
64394;BMP280;50712;49.506;10.400;2022-08-03T02:13:39;98150.56;;;23.67
64394;BMP280;50712;49.506;10.400;2022-08-03T02:14:10;98149.06;;;23.66
64394;BMP280;50712;49.506;10.400;2022-08-03T02:14:43;98155.94;;;23.65
64394;BMP280;50712;49.506;10.400;2022-08-03T02:15:16;98157.19;;;23.64
64394;BMP280;50712;49.506;10.400;2022-08-03T02:15:48;98150.91;;;23.64
64394;BMP280;50712;49.506;10.400;2022-08-03T02:16:21;98152.94;;;23.63
64394;BMP280;50712;49.506;10.400;2022-08-03T02:16:53;98154.19;;;23.62
64394;BMP280;50712;49.506;10.400;2022-08-03T02:17:25;98152.72;;;23.61
64394;BMP280;50712;49.506;10.400;2022-08-03T02:17:57;98150.47;;;23.60
64394;BMP280;50712;49.506;10.400;2022-08-03T02:18:28;98145.66;;;23.60
64394;BMP280;50712;49.506;10.400;2022-08-03T02:19:01;98146.94;;;23.59
64394;BMP280;50712;49.506;10.400;2022-08-03T02:19:34;98147.47;;;23.58
64394;BMP280;50712;49.506;10.400;2022-08-03T02:20:08;98150.97;;;23.58
64394;BMP280;50712;49.506;10.400;2022-08-03T02:20:41;98147.47;;;23.58
64394;BMP280;50712;49.506;10.400;2022-08-03T02:21:12;98146.72;;;23.57
64394;BMP280;50712;49.506;10.400;2022-08-03T02:21:44;98148.00;;;23.56
64394;BMP280;50712;49.506;10.400;2022-08-03T02:22:15;98153.56;;;23.56
64394;BMP280;50712;49.506;10.400;2022-08-03T02:22:46;98152.06;;;23.55
64394;BMP280;50712;49.506;10.400;2022-08-03T02:23:17;98149.28;;;23.55
64394;BMP280;50712;49.506;10.400;2022-08-03T02:23:48;98150.59;;;23.54
64394;BMP280;50712;49.506;10.400;2022-08-03T02:24:19;98150.59;;;23.54
64394;BMP280;50712;49.506;10.400;2022-08-03T02:24:49;98145.03;;;23.54
64394;BMP280;50712;49.506;10.400;2022-08-03T02:25:20;98149.84;;;23.54
64394;BMP280;50712;49.506;10.400;2022-08-03T02:25:56;98153.88;;;23.53
64394;BMP280;50712;49.506;10.400;2022-08-03T02:26:29;98153.88;;;23.53
64394;BMP280;50712;49.506;10.400;2022-08-03T02:27:04;98152.38;;;23.52
64394;BMP280;50712;49.506;10.400;2022-08-03T02:27:42;98155.91;;;23.52
64394;BMP280;50712;49.506;10.400;2022-08-03T02:28:39;98156.47;;;23.51
64394;BMP280;50712;49.506;10.400;2022-08-03T02:29:17;98150.16;;;23.50
64394;BMP280;50712;49.506;10.400;2022-08-03T02:29:55;98154.97;;;23.50
64394;BMP280;50712;49.506;10.400;2022-08-03T02:30:34;98159.75;;;23.49
64394;BMP280;50712;49.506;10.400;2022-08-03T02:31:10;98152.69;;;23.48
64394;BMP280;50712;49.506;10.400;2022-08-03T02:31:44;98153.25;;;23.47
64394;BMP280;50712;49.506;10.400;2022-08-03T02:32:19;98155.28;;;23.46
64394;BMP280;50712;49.506;10.400;2022-08-03T02:32:53;98150.25;;;23.45
64394;BMP280;50712;49.506;10.400;2022-08-03T02:33:32;98157.84;;;23.44
64394;BMP280;50712;49.506;10.400;2022-08-03T02:34:07;98158.38;;;23.43
64394;BMP280;50712;49.506;10.400;2022-08-03T02:34:41;98156.13;;;23.41
64394;BMP280;50712;49.506;10.400;2022-08-03T02:35:15;98160.19;;;23.40
64394;BMP280;50712;49.506;10.400;2022-08-03T02:35:50;98155.91;;;23.39
64394;BMP280;50712;49.506;10.400;2022-08-03T02:36:26;98156.44;;;23.38
64394;BMP280;50712;49.506;10.400;2022-08-03T02:36:58;98155.69;;;23.37
64394;BMP280;50712;49.506;10.400;2022-08-03T02:37:33;98156.22;;;23.36
64394;BMP280;50712;49.506;10.400;2022-08-03T02:38:06;98159.53;;;23.34
64394;BMP280;50712;49.506;10.400;2022-08-03T02:38:40;98153.97;;;23.34
64394;BMP280;50712;49.506;10.400;2022-08-03T02:39:12;98154.50;;;23.33
64394;BMP280;50712;49.506;10.400;2022-08-03T02:39:44;98155.81;;;23.32
64394;BMP280;50712;49.506;10.400;2022-08-03T02:40:18;98157.06;;;23.31
64394;BMP280;50712;49.506;10.400;2022-08-03T02:40:50;98157.59;;;23.29
64394;BMP280;50712;49.506;10.400;2022-08-03T02:41:29;98154.81;;;23.29
64394;BMP280;50712;49.506;10.400;2022-08-03T02:42:02;98151.31;;;23.29
64394;BMP280;50712;49.506;10.400;2022-08-03T02:42:35;98152.59;;;23.28
64394;BMP280;50712;49.506;10.400;2022-08-03T02:43:08;98150.31;;;23.26
64394;BMP280;50712;49.506;10.400;2022-08-03T02:43:42;98154.59;;;23.27
64394;BMP280;50712;49.506;10.400;2022-08-03T02:44:15;98149.59;;;23.26
64394;BMP280;50712;49.506;10.400;2022-08-03T02:44:50;98148.09;;;23.25
64394;BMP280;50712;49.506;10.400;2022-08-03T02:45:24;98156.44;;;23.25
64394;BMP280;50712;49.506;10.400;2022-08-03T02:45:56;98150.13;;;23.24
64394;BMP280;50712;49.506;10.400;2022-08-03T02:46:31;98152.13;;;23.24
64394;BMP280;50712;49.506;10.400;2022-08-03T02:47:06;98149.34;;;23.24
64394;BMP280;50712;49.506;10.400;2022-08-03T02:47:39;98154.91;;;23.24
64394;BMP280;50712;49.506;10.400;2022-08-03T02:48:11;98154.91;;;23.24
64394;BMP280;50712;49.506;10.400;2022-08-03T02:48:46;98147.88;;;23.23
64394;BMP280;50712;49.506;10.400;2022-08-03T02:49:18;98153.22;;;23.21
64394;BMP280;50712;49.506;10.400;2022-08-03T02:49:50;98150.44;;;23.21
64394;BMP280;50712;49.506;10.400;2022-08-03T02:50:23;98144.66;;;23.19
64394;BMP280;50712;49.506;10.400;2022-08-03T02:50:56;98143.16;;;23.18
64394;BMP280;50712;49.506;10.400;2022-08-03T02:51:29;98152.03;;;23.16
64394;BMP280;50712;49.506;10.400;2022-08-03T02:52:02;98146.25;;;23.14
64394;BMP280;50712;49.506;10.400;2022-08-03T02:52:37;98147.53;;;23.13
64394;BMP280;50712;49.506;10.400;2022-08-03T02:53:10;98144.75;;;23.13
64394;BMP280;50712;49.506;10.400;2022-08-03T02:53:44;98147.28;;;23.11
64394;BMP280;50712;49.506;10.400;2022-08-03T02:54:16;98152.84;;;23.11
64394;BMP280;50712;49.506;10.400;2022-08-03T02:54:49;98143.06;;;23.10
64394;BMP280;50712;49.506;10.400;2022-08-03T02:55:22;98148.63;;;23.10
64394;BMP280;50712;49.506;10.400;2022-08-03T02:55:55;98138.75;;;23.09
64394;BMP280;50712;49.506;10.400;2022-08-03T02:56:25;98147.84;;;23.10
64394;BMP280;50712;49.506;10.400;2022-08-03T02:56:57;98146.34;;;23.09
64394;BMP280;50712;49.506;10.400;2022-08-03T02:57:29;98140.78;;;23.09
64394;BMP280;50712;49.506;10.400;2022-08-03T02:58:01;98144.81;;;23.08
64394;BMP280;50712;49.506;10.400;2022-08-03T02:58:33;98142.81;;;23.08
64394;BMP280;50712;49.506;10.400;2022-08-03T02:59:04;98145.38;;;23.06
64394;BMP280;50712;49.506;10.400;2022-08-03T02:59:35;98147.41;;;23.06
64394;BMP280;50712;49.506;10.400;2022-08-03T03:00:08;98145.91;;;23.04
64394;BMP280;50712;49.506;10.400;2022-08-03T03:00:39;98148.69;;;23.04
64394;BMP280;50712;49.506;10.400;2022-08-03T03:01:12;98142.34;;;23.04
64394;BMP280;50712;49.506;10.400;2022-08-03T03:01:43;98142.91;;;23.02
64394;BMP280;50712;49.506;10.400;2022-08-03T03:02:14;98142.16;;;23.02
64394;BMP280;50712;49.506;10.400;2022-08-03T03:02:46;98144.19;;;23.01
64394;BMP280;50712;49.506;10.400;2022-08-03T03:03:17;98144.94;;;23.02
64394;BMP280;50712;49.506;10.400;2022-08-03T03:03:50;98135.09;;;23.01
64394;BMP280;50712;49.506;10.400;2022-08-03T03:04:22;98148.97;;;23.01
64394;BMP280;50712;49.506;10.400;2022-08-03T03:04:53;98147.50;;;23.00
64394;BMP280;50712;49.506;10.400;2022-08-03T03:05:25;98138.44;;;22.99
64394;BMP280;50712;49.506;10.400;2022-08-03T03:05:56;98141.94;;;23.00
64394;BMP280;50712;49.506;10.400;2022-08-03T03:06:26;98144.72;;;23.00
64394;BMP280;50712;49.506;10.400;2022-08-03T03:06:58;98138.44;;;22.99
64394;BMP280;50712;49.506;10.400;2022-08-03T03:07:29;98144.72;;;23.00
64394;BMP280;50712;49.506;10.400;2022-08-03T03:08:00;98138.44;;;22.99
64394;BMP280;50712;49.506;10.400;2022-08-03T03:08:31;98136.91;;;22.98
64394;BMP280;50712;49.506;10.400;2022-08-03T03:09:03;98145.25;;;22.98
64394;BMP280;50712;49.506;10.400;2022-08-03T03:09:34;98138.94;;;22.98
64394;BMP280;50712;49.506;10.400;2022-08-03T03:10:05;98140.94;;;22.97
64394;BMP280;50712;49.506;10.400;2022-08-03T03:10:37;98147.28;;;22.98
64394;BMP280;50712;49.506;10.400;2022-08-03T03:11:08;98137.44;;;22.97
64394;BMP280;50712;49.506;10.400;2022-08-03T03:11:40;98143.00;;;22.97
64394;BMP280;50712;49.506;10.400;2022-08-03T03:12:12;98145.03;;;22.96
64394;BMP280;50712;49.506;10.400;2022-08-03T03:12:43;98143.75;;;22.97
64394;BMP280;50712;49.506;10.400;2022-08-03T03:13:15;98141.53;;;22.96
64394;BMP280;50712;49.506;10.400;2022-08-03T03:13:48;98142.25;;;22.96
64394;BMP280;50712;49.506;10.400;2022-08-03T03:14:20;98143.53;;;22.95
64394;BMP280;50712;49.506;10.400;2022-08-03T03:14:51;98144.06;;;22.94
64394;BMP280;50712;49.506;10.400;2022-08-03T03:15:22;98144.06;;;22.94
64394;BMP280;50712;49.506;10.400;2022-08-03T03:15:55;98141.28;;;22.94
64394;BMP280;50712;49.506;10.400;2022-08-03T03:16:28;98139.03;;;22.92
64394;BMP280;50712;49.506;10.400;2022-08-03T03:17:00;98143.84;;;22.92
64394;BMP280;50712;49.506;10.400;2022-08-03T03:17:32;98143.84;;;22.92
64394;BMP280;50712;49.506;10.400;2022-08-03T03:18:04;98144.38;;;22.90
64394;BMP280;50712;49.506;10.400;2022-08-03T03:18:36;98142.88;;;22.89
64394;BMP280;50712;49.506;10.400;2022-08-03T03:19:07;98141.38;;;22.88
64394;BMP280;50712;49.506;10.400;2022-08-03T03:19:40;98140.63;;;22.88